Jette Viking Hv77 — 5QEP — position and weather

sailwx.info

Track history (hours):
 
Tides and Currents Weather Stations Pressure Air Temp Water Temp Dewpoint Dewpoint Depression Visibility Wind Speed Wind Dir Waves Ship Positions

Jette Viking Hv77

Last reported at 2015-Apr-26 21:30 UTC. Time now 2015-Apr-28 03:53 UTC.
Position N 57°33' E 010°46'.

Length 16 m.

Type: Fishing. MMSI: 220046000.

Date/timePositionNaut miles runAvg speedWind from/ knotsBaromVisibWave heightAir tempDewpointWater temp
2015-Apr-26 21:30N 57°33' E 010°46'  
2015-Apr-22 20:28N 57°30' E 010°30'0 0.0
2015-Apr-22 19:32N 57°30' E 010°30'0 0.0
2015-Apr-22 10:14N 57°30' E 010°30'0 0.0
2015-Apr-22 05:17N 57°30' E 010°30'4 5.0
2015-Apr-22 04:27N 57°31' E 010°37'3 3.9
2015-Apr-22 03:33N 57°31' E 010°44'5 2.5
2015-Apr-22 01:30N 57°35' E 010°51'2 2.5
2015-Apr-22 00:33N 57°33' E 010°47'2 2.5
2015-Apr-21 23:32N 57°32' E 010°44'1 0.6
2015-Apr-21 22:28N 57°31' E 010°45'3 2.5
2015-Apr-21 21:23N 57°33' E 010°49'2 2.4
2015-Apr-21 20:33N 57°35' E 010°51'3 2.5
2015-Apr-21 19:33N 57°33' E 010°47'2 2.5
2015-Apr-21 18:33N 57°32' E 010°44'5 4.5
2015-Apr-21 17:26N 57°30' E 010°35'3 0.2
2015-Apr-21 05:21N 57°30' E 010°30'4 4.7
2015-Apr-21 04:23N 57°31' E 010°38'3 3.2
2015-Apr-21 03:31N 57°31' E 010°43'2 2.5
2015-Apr-21 02:33N 57°32' E 010°47'3 2.5
2015-Apr-21 01:31N 57°34' E 010°50'2 1.7
2015-Apr-21 00:33N 57°34' E 010°47'2 2.4
2015-Apr-20 23:33N 57°33' E 010°44'1 1.1
2015-Apr-20 22:33N 57°32' E 010°43'3 2.5
2015-Apr-20 21:33N 57°32' E 010°47'2 2.5
2015-Apr-20 20:33N 57°34' E 010°51'2 2.1
2015-Apr-20 19:33N 57°33' E 010°47'3 2.5
2015-Apr-20 18:33N 57°31' E 010°43'4 4.3
2015-Apr-20 17:33N 57°31' E 010°36'3 3.0
2015-Apr-20 16:33N 57°30' E 010°30'4 0.3
2015-Apr-20 04:09N 57°31' E 010°38'7 2.6
2015-Apr-20 01:26N 57°35' E 010°49'2 2.2
2015-Apr-20 00:32N 57°34' E 010°46'2 2.5
2015-Apr-19 23:33N 57°32' E 010°43'1 0.7
2015-Apr-19 22:30N 57°33' E 010°42'2 2.5
2015-Apr-19 21:33N 57°35' E 010°42'2 1.9
2015-Apr-19 20:33N 57°33' E 010°43'3 2.5
2015-Apr-19 19:33N 57°31' E 010°44'3 2.5
2015-Apr-19 18:33N 57°28' E 010°44'4 4.0
2015-Apr-19 17:33N 57°29' E 010°36'3 0.7
2015-Apr-19 13:11N 57°30' E 010°30'0 0.0
2015-Apr-19 12:27N 57°30' E 010°30'0 0.0
2015-Apr-18 21:33N 57°30' E 010°30'0 0.0
2015-Apr-18 20:30N 57°30' E 010°30'0 0.0
2015-Apr-18 19:33N 57°30' E 010°30'0 0.0
2015-Apr-18 18:33N 57°30' E 010°30'0 0.0
2015-Apr-18 17:33N 57°30' E 010°30'0 0.0
2015-Apr-18 16:33N 57°30' E 010°30'0 0.0
2015-Apr-18 15:33N 57°30' E 010°30'0 0.0
2015-Apr-18 08:27N 57°30' E 010°30'0 0.0
2015-Apr-18 07:13N 57°30' E 010°30'0 0.0
2015-Apr-18 06:21N 57°30' E 010°30'  
Track history (hours):
 
Tides and Currents Weather Stations Pressure Air Temp Water Temp Dewpoint Dewpoint Depression Visibility Wind Speed Wind Dir Waves Ship Positions

Jette Viking Hv77

Last reported at 2015-Apr-26 21:30 UTC. Time now 2015-Apr-28 03:53 UTC.
Position N 57°33' E 010°46'.

Length 16 m.

Type: Fishing. MMSI: 220046000.

Date/timePositionNaut miles runAvg speedWind from/ knotsBaromVisibWave heightAir tempDewpointWater temp
2015-Apr-26 21:30N 57°33' E 010°46'  
2015-Apr-22 20:28N 57°30' E 010°30'0 0.0
2015-Apr-22 19:32N 57°30' E 010°30'0 0.0
2015-Apr-22 10:14N 57°30' E 010°30'0 0.0
2015-Apr-22 05:17N 57°30' E 010°30'4 5.0
2015-Apr-22 04:27N 57°31' E 010°37'3 3.9
2015-Apr-22 03:33N 57°31' E 010°44'5 2.5
2015-Apr-22 01:30N 57°35' E 010°51'2 2.5
2015-Apr-22 00:33N 57°33' E 010°47'2 2.5
2015-Apr-21 23:32N 57°32' E 010°44'1 0.6
2015-Apr-21 22:28N 57°31' E 010°45'3 2.5
2015-Apr-21 21:23N 57°33' E 010°49'2 2.4
2015-Apr-21 20:33N 57°35' E 010°51'3 2.5
2015-Apr-21 19:33N 57°33' E 010°47'2 2.5
2015-Apr-21 18:33N 57°32' E 010°44'5 4.5
2015-Apr-21 17:26N 57°30' E 010°35'3 0.2
2015-Apr-21 05:21N 57°30' E 010°30'4 4.7
2015-Apr-21 04:23N 57°31' E 010°38'3 3.2
2015-Apr-21 03:31N 57°31' E 010°43'2 2.5
2015-Apr-21 02:33N 57°32' E 010°47'3 2.5
2015-Apr-21 01:31N 57°34' E 010°50'2 1.7
2015-Apr-21 00:33N 57°34' E 010°47'2 2.4
2015-Apr-20 23:33N 57°33' E 010°44'1 1.1
2015-Apr-20 22:33N 57°32' E 010°43'3 2.5
2015-Apr-20 21:33N 57°32' E 010°47'2 2.5
2015-Apr-20 20:33N 57°34' E 010°51'2 2.1
2015-Apr-20 19:33N 57°33' E 010°47'3 2.5
2015-Apr-20 18:33N 57°31' E 010°43'4 4.3
2015-Apr-20 17:33N 57°31' E 010°36'3 3.0
2015-Apr-20 16:33N 57°30' E 010°30'4 0.3
2015-Apr-20 04:09N 57°31' E 010°38'7 2.6
2015-Apr-20 01:26N 57°35' E 010°49'2 2.2
2015-Apr-20 00:32N 57°34' E 010°46'2 2.5
2015-Apr-19 23:33N 57°32' E 010°43'1 0.7
2015-Apr-19 22:30N 57°33' E 010°42'2 2.5
2015-Apr-19 21:33N 57°35' E 010°42'2 1.9
2015-Apr-19 20:33N 57°33' E 010°43'3 2.5
2015-Apr-19 19:33N 57°31' E 010°44'3 2.5
2015-Apr-19 18:33N 57°28' E 010°44'4 4.0
2015-Apr-19 17:33N 57°29' E 010°36'3 0.7
2015-Apr-19 13:11N 57°30' E 010°30'0 0.0
2015-Apr-19 12:27N 57°30' E 010°30'0 0.0
2015-Apr-18 21:33N 57°30' E 010°30'0 0.0
2015-Apr-18 20:30N 57°30' E 010°30'0 0.0
2015-Apr-18 19:33N 57°30' E 010°30'0 0.0
2015-Apr-18 18:33N 57°30' E 010°30'0 0.0
2015-Apr-18 17:33N 57°30' E 010°30'0 0.0
2015-Apr-18 16:33N 57°30' E 010°30'0 0.0
2015-Apr-18 15:33N 57°30' E 010°30'0 0.0
2015-Apr-18 08:27N 57°30' E 010°30'0 0.0
2015-Apr-18 07:13N 57°30' E 010°30'0 0.0
2015-Apr-18 06:21N 57°30' E 010°30'  

Dump ship's entire track history